Flight Track Log - Related Links

Times and Time Zones

All times are in EDT time to prevent confusion due to time zone crossing. See the N655CM flight status page for this flight to view local times or setup timezone preferences in your user account.

Time Position Orientation Groundspeed Altitude Reporting Facility
EDT Latitude Longitude Course Direction KTS MPH feet Rate Location/Type
Sat 01:36:52 PM 35.1739 -80.9311 160° South 188 216 3,200  Level Atlanta Center
Sat 01:37:53 PM 35.1156 -80.9308 180° South 231 266 6,100 2,500 Climbing Atlanta Center
Sat 01:38:04 PM 35.1033 -80.9389 208° Southwest 243 280 6,200 1,672 Climbing Atlanta Center
Sat 01:38:54 PM 35.0606 -80.9861 222° Southwest 273 314 7,800 1,700 Climbing Atlanta Center
Sat 01:39:04 PM 35.0506 -80.9992 227° Southwest 246 283 7,900 1,377 Climbing Atlanta Center
Sat 01:39:55 PM 35.0078 -81.0414 219° Southwest 228 262 9,200 1,269 Climbing Atlanta Center
Sat 01:41:59 PM 34.8325 -81.0464 181° South 330 380 11,600 1,337 Climbing Jacksonville Center
Sat 01:42:59 PM 34.7367 -81.0483 181° South 335 386 13,300 1,500 Climbing Jacksonville Center
Sat 01:43:59 PM 34.6344 -81.0481 180° South 341 392 14,600 1,500 Climbing Jacksonville Center
Sat 01:44:59 PM 34.5281 -81.0528 182° South 365 420 16,300 1,600 Climbing Jacksonville Center
Sat 01:45:59 PM 34.4197 -81.0575 182° South 387 445 17,800 1,400 Climbing Jacksonville Center
Sat 01:46:59 PM 34.3072 -81.0600 181° South 398 458 19,100 1,350 Climbing Jacksonville Center
Sat 01:47:59 PM 34.1986 -81.0622 181° South 398 458 20,500 1,250 Climbing Jacksonville Center
Sat 01:48:59 PM 34.0839 -81.0672 182° South 403 464 21,600 1,200 Climbing Jacksonville Center
Sat 01:49:59 PM 33.9692 -81.0669 180° South 408 470 22,900 1,600 Climbing Jacksonville Center
Sat 01:50:59 PM 33.8567 -81.0694 181° South 408 470 24,800 1,700 Climbing Jacksonville Center
Sat 01:51:59 PM 33.7711 -81.0736 182° South 408 470 26,300 1,350 Climbing Jacksonville Center
Sat 01:52:59 PM 33.6458 -81.0764 181° South 402 463 27,500 850 Climbing Jacksonville Center
Sat 01:53:59 PM 33.5292 -81.0786 181° South 407 468 28,000 800 Climbing Jacksonville Center
Sat 01:54:59 PM 33.4103 -81.0811 181° South 418 481 29,100 1,100 Climbing Jacksonville Center
Sat 01:55:59 PM 33.2892 -81.0861 182° South 423 487 30,200 1,000 Climbing Jacksonville Center
Sat 01:56:59 PM 33.1703 -81.0883 181° South 428 493 31,100 1,000 Climbing Jacksonville Center
Sat 01:57:59 PM 33.0514 -81.0908 181° South 428 493 32,200 1,250 Climbing Jacksonville Center
Sat 01:58:59 PM 32.9344 -81.0858 178° South 428 493 33,600 1,100 Climbing Jacksonville Center
Sat 01:59:59 PM 32.8131 -81.0636 171° South 428 493 34,400 800 Climbing Jacksonville Center
Sat 02:00:59 PM 32.6958 -81.0436 172° South 433 498 35,200 900 Climbing Jacksonville Center
Sat 02:01:59 PM 32.5767 -81.0336 176° South 433 498 36,200 950 Climbing Jacksonville Center
Sat 02:02:59 PM 32.4597 -81.0361 181° South 421 484 37,100 700 Climbing Jacksonville Center
Sat 02:03:59 PM 32.3367 -81.0411 182° South 414 476 37,600 450 Climbing Jacksonville Center
Sat 02:04:59 PM 32.2156 -81.0436 181° South 425 489 38,000 200 Climbing Jacksonville Center
Sat 02:05:59 PM 32.1031 -81.0433 180° South 443 510 38,000  Level Jacksonville Center
Sat 02:06:59 PM 31.9672 -81.0511 183° South 449 517 38,000  Level Jacksonville Center
Sat 02:07:59 PM 31.8381 -81.0536 181° South 456 525 38,000  Level Jacksonville Center
Sat 02:08:59 PM 31.7253 -81.0583 182° South 462 532 38,000  Level Jacksonville Center
Sat 02:09:59 PM 31.5833 -81.0611 181° South 462 532 38,000  Level Jacksonville Center
Sat 02:10:59 PM 31.4664 -81.0633 181° South 462 532 38,000  Level Jacksonville Center
Sat 02:11:59 PM 31.3244 -81.0661 181° South 462 532 38,000  Level Jacksonville Center
Sat 02:12:59 PM 31.1972 -81.0686 181° South 457 526 38,000  Level Jacksonville Center
Sat 02:13:59 PM 31.0700 -81.0736 182° South 457 526 38,000  Level Jacksonville Center
Sat 02:14:59 PM 30.9425 -81.0758 181° South 457 526 38,000  Level Jacksonville Center
Sat 02:15:59 PM 30.8172 -81.0783 181° South 457 526 38,000  Level Jacksonville Center
Sat 02:16:59 PM 30.6900 -81.0833 182° South 457 526 38,000  Level Jacksonville Center
Sat 02:17:59 PM 30.5669 -81.0856 181° South 457 526 38,000  Level Jacksonville Center
Sat 02:18:59 PM 30.4394 -81.0881 181° South 457 526 38,000  Level Jacksonville Center
Sat 02:19:59 PM 30.3122 -81.0903 181° South 457 526 38,000  Level Jacksonville Center
Sat 02:20:59 PM 30.1994 -81.0947 182° South 457 526 38,000  Level Jacksonville Center
Sat 02:21:59 PM 30.0722 -81.0997 182° South 457 526 38,000 -150 Level Jacksonville Center
Sat 02:22:59 PM 29.9469 -81.1019 181° South 457 526 37,700 -600 Descending Jacksonville Center
Sat 02:23:59 PM 29.8219 -81.1042 181° South 457 526 36,800 -850 Descending Jacksonville Center
Sat 02:24:59 PM 29.6967 -81.1067 181° South 457 526 36,000 -258 Descending Jacksonville Center
Sat 02:27:05 PM 29.4097 -81.1150 181° South 457 526 36,000  Level Miami Center
Sat 02:28:05 PM 29.2789 -81.1028 175° South 462 532 36,000  Level Miami Center
Sat 02:29:05 PM 29.1603 -81.0219 149° Southeast 467 537 36,000  Level Miami Center
Sat 02:30:05 PM 29.0481 -80.9325 145° Southeast 477 549 36,000  Level Miami Center
Sat 02:31:05 PM 28.9317 -80.8475 147° Southeast 484 557 36,000  Level Miami Center
Sat 02:32:05 PM 28.8214 -80.7606 145° Southeast 489 563 36,000 -300 Level Miami Center
Sat 02:33:05 PM 28.7067 -80.6808 149° Southeast 489 563 35,400 -1,550 Descending Miami Center
Sat 02:34:05 PM 28.5961 -80.6014 148° Southeast 489 563 32,900 300 Descending Miami Center
Sat 02:35:05 PM 28.4875 -80.5247 148° Southeast 465 535 36,000 -2,550 Climbing Miami Center
Sat 02:36:05 PM 28.3914 -80.4553 148° Southeast 458 527 27,800 -5,400 Descending Miami Center
Sat 02:37:05 PM 28.2744 -80.3692 147° Southeast 458 527 25,200 -2,400 Descending Miami Center
Sat 02:38:05 PM 28.1636 -80.2928 149° Southeast 466 536 23,000 -2,200 Descending Miami Center
Sat 02:39:05 PM 28.0569 -80.2142 147° Southeast 466 536 20,800 -2,200 Descending Miami Center
Sat 02:40:05 PM 27.9511 -80.1853 166° South 438 504 18,600 -2,000 Descending Miami Center
Sat 02:41:05 PM 27.8364 -80.1794 177° South 430 495 16,800 -1,700 Descending Miami Center
Sat 02:42:05 PM 27.7178 -80.1689 175° South 401 461 15,200 -900 Descending Miami Center
Sat 02:43:05 PM 27.6114 -80.1611 176° South 388 447 15,000 -100 Descending Miami Center
Sat 02:44:05 PM 27.5092 -80.1536 176° South 375 432 15,000 -850 Level Miami Center
Sat 02:45:05 PM 27.4197 -80.1464 176° South 370 426 13,300 -2,450 Descending Miami Center
Sat 02:46:05 PM 27.3197 -80.1367 175° South 364 419 10,100 -1,850 Descending Miami Center
Sat 02:47:05 PM 27.2219 -80.1197 171° South 341 392 9,600 -1,000 Descending Miami Center
Sat 02:48:05 PM 27.1344 -80.1103 175° South 326 375 8,100 -1,450 Descending Miami Center
Sat 02:49:05 PM 27.0553 -80.1011 174° South 308 354 6,700 -1,400 Descending Miami Center
Sat 02:50:05 PM 26.9906 -80.0947 175° South 282 325 5,300 -1,350 Descending Miami Center
Sat 02:51:05 PM 26.9178 -80.0833 172° South 275 316 4,000 -650 Descending Miami Center
Sat 02:52:05 PM 26.8486 -80.0953 189° South 240 276 4,000 -300 Level Miami Center
Sat 02:53:05 PM 26.8039 -80.1406 222° Southwest 220 253 3,400 -700 Descending Miami Center
Sat 02:54:05 PM 26.7569 -80.1836 219° Southwest 220 253 2,600 -800 Descending Miami Center
Sat 02:56:00 PM 26.6832 -80.0956 254° West  Level Estimated
Sat 03:03:00 PM 26.6832 -80.0956 110° East  Level Estimated
Sat 03:04:00 PM 26.6832 -80.0956 110° East  Level Estimated
Sat 03:05:00 PM 26.6832 -80.0956 110° East  Level Estimated
Sat 03:06:00 PM 26.6832 -80.0956 110° East  Level Estimated

Login

Don't have an account? Register now (free) for customized features, flight alerts, and more!